MKJS 161600Z 07016KT 9999 FEW022 31/24 Q1013
MKJP 161700Z 14018KT 9999 FEW022 32/24 Q1012
MWCR 161700Z 11016KT 9999 FEW022 31/25 Q1013
MWCB 161700Z 10013KT 9999 SCT018 SCT030 31/25 Q1014